• Join FlightAware (Why Join?)
  • Login
  • US Flag 
01:11AM EST


 

Airport Tracker/Info


-or-


 

Live Flight TrackerFlight Track Log ✈ EJM918 ✈ 09-Oct-2013 ✈ KIAD - KHPN

Flight Track Log - Related Links

Times and Time Zones

All times are in EDT time to prevent confusion due to time zone crossing. See the EJM918 flight status page for this flight to view local times or setup timezone preferences in your user account.

Time Position Orientation Groundspeed Altitude Reporting Facility
EDT Latitude Longitude Course Direction KTS MPH feet Rate Location/Type
02:24PM 39.0000 -77.5500 307° West 229 264 4,000  Level Potomac TRACON
02:25PM 39.0667 -77.5500 360° North 277 319 8,200 2,460 Climbing Potomac TRACON
02:26PM 39.1333 -77.5000 30° Northeast 279 321 9,000 360 Climbing Potomac TRACON
02:27PM 39.1667 -77.4167 63° Northeast 265 305 9,000 1,680 Level Potomac TRACON
02:31PM 39.3324 -76.9881 63° Northeast 362 417 17,800 1,680 Climbing FlightAware ADS-B
02:32PM 39.3111 -76.8135 99° East 370 426 18,200 1,740 Climbing FlightAware ADS-B
02:34PM 39.2842 -76.5975 99° East 390 449 23,000 2,220 Climbing FlightAware ADS-B
02:34PM 39.2758 -76.5313 99° East 371 427 23,000  Level FlightAware ADS-B
02:35PM 39.2665 -76.4583 99° East 371 427 23,000  Level FlightAware ADS-B
02:35PM 39.2521 -76.3454 99° East 373 429 23,000  Level FlightAware ADS-B
02:37PM 39.2290 -76.1663 99° East 369 425 23,000  Level FlightAware ADS-B
02:38PM 39.2154 -76.0611 99° East 371 427 23,000  Level FlightAware ADS-B
02:40PM 39.2458 -75.8109 81° East 388 447 23,000  Level FlightAware ADS-B
02:42PM 39.3877 -75.6270 45° Northeast 392 451 23,000  Level FlightAware ADS-B
02:42PM 39.4531 -75.5458 45° Northeast 370 426 23,000  Level Washington Center
02:43PM 39.5300 -75.4436 46° Northeast 382 440 23,000  Level Washington Center
02:45PM 39.6464 -75.2681 49° Northeast 401 461 23,000  Level New York Center
02:46PM 39.6744 -75.1322 75° East 383 441 23,000  Level New York Center
02:47PM 39.7050 -74.9775 76° East 405 466 23,000  Level New York Center
02:48PM 39.7325 -74.8469 75° East 383 441 23,000  Level New York Center
02:49PM 39.7603 -74.7053 76° East 402 463 23,000  Level New York Center
02:50PM 39.7986 -74.5508 72° East 430 495 23,000  Level New York Center
02:51PM 39.8481 -74.3778 70° East 450 518 23,000 -120 Level New York Center
02:52PM 39.9228 -74.2436 54° Northeast 456 525 22,800 -840 Descending New York Center
02:53PM 39.9997 -74.1119 53° Northeast 450 518 21,400 -1,200 Descending New York Center
02:54PM 40.0719 -73.9825 54° Northeast 445 512 20,500 -900 Descending New York Center
02:55PM 40.1397 -73.8633 53° Northeast 434 499 19,600 -720 Descending New York Center
03:01PM 40.6098 -73.3693 53° Northeast 404 465 16,000 -660 Descending FlightAware ADS-B (KSNC)
03:01PM 40.6655 -73.3492 15° North 368 423 15,600 -780 Descending FlightAware ADS-B (KSNC)
03:02PM 40.7271 -73.3271 15° North 324 373 15,100 -660 Descending FlightAware ADS-B (KSNC)
03:02PM 40.7704 -73.3113 15° North 321 369 14,800 -600 Descending FlightAware ADS-B (KSNC)
03:03PM 40.7836 -73.3035 24° Northeast 302 348 14,700 -720 Descending FlightAware ADS-B (KSNC)
03:03PM 40.7939 -73.2930 38° Northeast 299 344 14,600 -240 Descending FlightAware ADS-B (KSNC)
03:03PM 40.8103 -73.2657 52° Northeast 297 342 14,600 -540 Level FlightAware ADS-B (KSNC)
03:04PM 40.8504 -73.1845 57° Northeast 296 341 14,000 -1,320 Descending FlightAware ADS-B (KSNC)
03:05PM 40.8902 -73.1038 57° Northeast 290 334 12,300 -1,980 Descending FlightAware ADS-B (KSNC)
03:05PM 40.9123 -73.0585 57° Northeast 284 327 11,300 -2,340 Descending FlightAware ADS-B (KSNC)
03:06PM 40.9365 -73.0091 57° Northeast 283 326 9,800 -2,100 Descending FlightAware ADS-B (KSNC)
03:06PM 40.9510 -72.9860 50° Northeast 287 330 9,400 -1,260 Descending FlightAware ADS-B (KSNC)
03:06PM 40.9634 -72.9772 28° Northeast 287 330 9,200 -1,740 Descending FlightAware ADS-B (KSNC)
03:07PM 41.0014 -72.9796 357° North 293 337 8,300 -1,620 Descending FlightAware ADS-B (KSNC)
03:07PM 41.0362 -73.0106 326° Northwest 291 335 7,600 -840 Descending FlightAware ADS-B (KSNC)
03:08PM 41.0595 -73.0319 325° Northwest 292 336 7,600  Level FlightAware ADS-B (KSNC)
03:08PM 41.0820 -73.0524 325° Northwest 291 335 7,600  Level FlightAware ADS-B (KSNC)
03:08PM 41.1029 -73.0716 325° Northwest 292 336 7,600  Level FlightAware ADS-B (KSNC)
03:09PM 41.1271 -73.0938 325° Northwest 291 335 7,600 -600 Level FlightAware ADS-B (KSNC)
03:09PM 41.1474 -73.1138 323° Northwest 289 333 7,200 -1,620 Descending FlightAware ADS-B (KSNC)
03:09PM 41.1606 -73.1430 301° West 292 336 6,600 -2,040 Descending FlightAware ADS-B (KSNC)
03:10PM 41.1630 -73.1559 284° West 296 341 6,200 -2,100 Descending FlightAware ADS-B (KSNC)
03:10PM 41.1658 -73.1891 276° West 294 338 5,500 -1,680 Descending FlightAware ADS-B (KSNC)
03:10PM 41.1686 -73.2264 276° West 289 333 5,200 -1,620 Descending FlightAware ADS-B (KSNC)
03:11PM 41.1713 -73.2627 276° West 288 331 4,500 -2,160 Descending FlightAware ADS-B (KSNC)
03:11PM 41.1738 -73.2942 276° West 286 329 3,800 -1,140 Descending FlightAware ADS-B (KSNC)
03:12PM 41.1500 -73.4167 276° West 266 306 2,600 -780 Descending New York TRACON
03:13PM 41.1000 -73.4667 217° Southwest 229 264 2,000 -300 Descending New York TRACON
03:14PM 41.0500 -73.5167 217° Southwest 190 219 2,000  Level New York TRACON
03:15PM 41.0167 -73.5667 229° Southwest 178 205 2,000  Level New York TRACON
03:16PM 40.9833 -73.6000 217° Southwest 173 199 2,000 -120 Level New York TRACON
03:17PM 41.0000 -73.6500 294° West 159 183 1,800 -480 Descending New York TRACON
03:18PM 41.0333 -73.6833 323° Northwest 122 140 1,100 -720 Descending New York TRACON
03:20PM 41.0667 -73.7000 318° Northwest  Level FlightAware Approximate
03:27PM 41.0669 -73.7076 318° Northwest  Level Estimated
03:28PM 41.0667 -73.7000 318° Northwest  Level FlightAware Approximate